Time;durP1;ratioP1;P1;durP2;ratioP2;P2;SDS_P1;SDS_P2;PMS_P1;PMS_P2;Temp;Humidity;BMP_temperature;BMP_pressure;BME280_temperature;BME280_humidity;BME280_pressure;Samples;Min_cycle;Max_cycle;Signal;HPM_P1;HPM_P2
2023/10/28 00:02:14;;;;;;;;;;;;;;;28.11;29.57;99510.25;5057407;28;1011;-42
2023/10/28 00:04:40;;;;;;;;;;;;;;;28.02;29.05;99524.25;5066475;28;1076;-42
2023/10/28 00:07:06;;;;;;;;;;;;;;;28.04;29.09;99522.16;5060368;28;1905;-42
2023/10/28 00:09:31;;;;;;;;;;;;;;;28.09;29.71;99528.56;5066695;28;1028;-42
2023/10/28 00:11:57;;;;;;;;;;;;;;;28.04;29.54;99531.09;5073389;28;1043;-43
2023/10/28 00:14:23;;;;;;;;;;;;;;;28.03;29.54;99528.63;5056956;28;1179;-42
2023/10/28 00:16:49;;;;;;;;;;;;;;;28.04;29.50;99523.00;5060103;28;1055;-42
2023/10/28 00:19:16;;;;;;;;;;;;;;;27.95;29.62;99525.13;5057014;28;1181;-42
2023/10/28 00:21:41;;;;;;;;;;;;;;;27.87;29.79;99515.44;5056775;28;1190;-42
2023/10/28 00:24:07;;;;;;;;;;;;;;;27.94;29.38;99511.84;5056972;28;1096;-42
2023/10/28 00:26:34;;;;;;;;;;;;;;;28.02;29.43;99516.13;5072396;28;1914;-42
2023/10/28 00:28:59;;;;;;;;;;;;;;;27.91;29.83;99513.09;5066743;28;1043;-42
2023/10/28 00:31:25;;;;;;;;;;;;;;;27.82;29.45;99512.53;5054375;28;932;-43
2023/10/28 00:33:51;;;;;;;;;;;;;;;27.93;29.42;99513.69;5066972;28;1031;-42
2023/10/28 00:36:17;;;;;;;;;;;;;;;28.00;29.86;99508.25;5056275;28;1123;-42
2023/10/28 00:38:42;;;;;;;;;;;;;;;27.92;29.65;99516.63;5065676;28;1040;-42
2023/10/28 00:41:08;;;;;;;;;;;;;;;27.90;29.60;99522.25;5055673;28;1078;-42
2023/10/28 00:43:34;;;;;;;;;;;;;;;27.82;29.79;99520.66;5038332;28;1043;-42
2023/10/28 00:46:00;;;;;;;;;;;;;;;27.84;29.56;99523.13;5038701;28;1051;-42
2023/10/28 00:48:26;;;;;;;;;;;;;;;27.95;29.71;99524.28;5056150;28;1973;-42
2023/10/28 00:50:54;;;;;;;;;;;;;;;27.77;30.48;99533.16;5041427;28;1133;-42
2023/10/28 00:53:20;;;;;;;;;;;;;;;27.66;31.06;99532.75;5058538;28;1079;-42
2023/10/28 00:55:45;;;;;;;;;;;;;;;27.85;30.44;99536.44;5059303;28;1011;-42
2023/10/28 00:58:11;;;;;;;;;;;;;;;27.80;30.15;99527.31;5048490;28;890;-42
2023/10/28 01:00:37;;;;;;;;;;;;;;;27.66;30.47;99531.94;5059715;28;1054;-43
2023/10/28 01:03:03;;;;;;;;;;;;;;;27.81;30.08;99534.38;5038242;28;1089;-42
2023/10/28 01:05:30;;;;;;;;;;;;;;;27.84;30.26;99539.34;5057569;28;1031;-42
2023/10/28 01:07:58;;;;;;;;;;;;;;;27.92;29.98;99540.94;5038313;28;2048;-42
2023/10/28 01:10:33;;;;;;;;;;;;;;;27.90;29.86;99541.16;5069487;28;1052;-42
2023/10/28 01:12:59;;;;;;;;;;;;;;;27.73;29.94;99539.00;5056062;28;1127;-42
2023/10/28 01:15:26;;;;;;;;;;;;;;;27.81;29.92;99537.09;5051372;28;1040;-42
2023/10/28 01:17:51;;;;;;;;;;;;;;;27.80;30.20;99538.09;5037924;28;1181;-42
2023/10/28 01:20:17;;;;;;;;;;;;;;;27.72;29.76;99540.03;5056078;28;1060;-42
2023/10/28 01:22:42;;;;;;;;;;;;;;;27.68;30.01;99546.03;5056192;28;1067;-42
2023/10/28 01:25:09;;;;;;;;;;;;;;;27.67;29.95;99553.34;5042787;28;1169;-42
2023/10/28 01:27:35;;;;;;;;;;;;;;;27.58;30.44;99562.72;5075545;28;1914;-42
2023/10/28 01:30:00;;;;;;;;;;;;;;;27.83;29.61;99560.13;5043917;28;1107;-42
2023/10/28 01:32:26;;;;;;;;;;;;;;;27.82;29.92;99565.75;5075700;28;1027;-42
2023/10/28 01:34:52;;;;;;;;;;;;;;;27.79;29.51;99571.59;5058306;28;1103;-43
2023/10/28 01:37:17;;;;;;;;;;;;;;;27.90;29.36;99573.59;5055925;28;1004;-42
2023/10/28 01:39:44;;;;;;;;;;;;;;;27.84;29.49;99566.38;5069632;28;1096;-42
2023/10/28 01:42:13;;;;;;;;;;;;;;;27.84;29.31;99571.78;5060257;28;1183;-42
2023/10/28 01:44:39;;;;;;;;;;;;;;;27.72;29.64;99569.75;5062474;28;1114;-43
2023/10/28 01:47:04;;;;;;;;;;;;;;;27.90;29.06;99579.00;5063924;28;1910;-43
2023/10/28 01:49:31;;;;;;;;;;;;;;;27.80;29.41;99578.63;5042573;28;1106;-43
2023/10/28 01:51:56;;;;;;;;;;;;;;;27.75;29.22;99579.28;5064434;28;1126;-43
2023/10/28 01:54:22;;;;;;;;;;;;;;;27.85;29.30;99571.56;5055589;28;1063;-43
2023/10/28 01:56:47;;;;;;;;;;;;;;;27.75;29.13;99566.63;5067818;28;1039;-42
2023/10/28 01:59:13;;;;;;;;;;;;;;;27.77;29.36;99569.09;5054692;28;1136;-42
2023/10/28 02:01:38;;;;;;;;;;;;;;;27.85;29.18;99571.56;5041849;28;1219;-42
2023/10/28 02:04:06;;;;;;;;;;;;;;;27.77;29.20;99579.06;5059245;28;1142;-42
2023/10/28 02:06:32;;;;;;;;;;;;;;;27.81;29.07;99583.03;5059280;28;1909;-42
2023/10/28 02:08:57;;;;;;;;;;;;;;;27.74;29.11;99583.06;5072653;28;1031;-43
2023/10/28 02:11:23;;;;;;;;;;;;;;;27.82;29.14;99590.06;5040906;28;1015;-42
2023/10/28 02:13:49;;;;;;;;;;;;;;;27.80;29.15;99582.19;5054399;28;1095;-42
2023/10/28 02:16:15;;;;;;;;;;;;;;;27.75;29.31;99579.28;5041207;28;1059;-42
2023/10/28 02:18:41;;;;;;;;;;;;;;;27.66;29.21;99581.38;5070060;28;1183;-42
2023/10/28 02:21:06;;;;;;;;;;;;;;;27.70;28.91;99579.94;5041362;28;1208;-42
2023/10/28 02:23:32;;;;;;;;;;;;;;;27.70;28.87;99593.47;5054704;28;1099;-42
2023/10/28 02:25:58;;;;;;;;;;;;;;;27.70;28.75;99587.22;5040667;28;1079;-42
2023/10/28 02:28:23;;;;;;;;;;;;;;;27.78;28.79;99588.84;5041398;28;1914;-43
2023/10/28 02:30:49;;;;;;;;;;;;;;;27.67;29.01;99593.03;5040855;28;1144;-42
2023/10/28 02:33:14;;;;;;;;;;;;;;;27.72;28.93;99588.69;5063512;28;1128;-42
2023/10/28 02:35:40;;;;;;;;;;;;;;;27.66;28.84;99592.19;5067889;28;1096;-42
2023/10/28 02:38:05;;;;;;;;;;;;;;;27.64;28.85;99591.59;5072336;28;1131;-42
2023/10/28 02:40:31;;;;;;;;;;;;;;;27.59;28.88;99596.81;5040358;28;1016;-43
2023/10/28 02:42:56;;;;;;;;;;;;;;;27.58;28.80;99595.13;5060887;28;1152;-42
2023/10/28 02:45:22;;;;;;;;;;;;;;;27.53;28.97;99597.66;5041169;28;1094;-44
2023/10/28 02:47:49;;;;;;;;;;;;;;;27.48;29.30;99596.44;5058576;28;1913;-42
2023/10/28 02:50:16;;;;;;;;;;;;;;;27.55;28.66;99596.41;5058542;28;1124;-43
2023/10/28 02:52:42;;;;;;;;;;;;;;;27.56;28.86;99594.53;5045913;28;1155;-42
2023/10/28 02:55:07;;;;;;;;;;;;;;;27.36;29.16;99596.25;5066261;28;1098;-42
2023/10/28 02:57:33;;;;;;;;;;;;;;;27.52;29.11;99602.22;5071733;28;1092;-42
2023/10/28 02:59:59;;;;;;;;;;;;;;;27.47;28.89;99599.34;5070024;28;1043;-42
2023/10/28 03:02:25;;;;;;;;;;;;;;;27.50;28.66;99599.75;5046601;28;1150;-42
2023/10/28 03:04:50;;;;;;;;;;;;;;;27.43;28.82;99607.03;5078113;28;1183;-43
2023/10/28 03:07:16;;;;;;;;;;;;;;;27.42;28.93;99609.94;5073485;28;1910;-42
2023/10/28 03:09:42;;;;;;;;;;;;;;;27.46;28.75;99614.72;5077596;28;1145;-42
2023/10/28 03:12:07;;;;;;;;;;;;;;;27.37;29.18;99618.69;5065030;28;996;-42
2023/10/28 03:14:33;;;;;;;;;;;;;;;27.51;28.58;99616.75;5066783;28;1082;-42
2023/10/28 03:16:59;;;;;;;;;;;;;;;27.60;28.74;99614.66;5058010;28;1120;-42
2023/10/28 03:19:24;;;;;;;;;;;;;;;27.45;28.83;99614.91;5044114;28;1177;-43
2023/10/28 03:21:50;;;;;;;;;;;;;;;27.29;30.27;99608.97;5037660;28;1125;-41
2023/10/28 03:24:15;;;;;;;;;;;;;;;27.50;30.96;99613.25;5049231;28;1087;-41
2023/10/28 03:26:41;;;;;;;;;;;;;;;27.57;32.00;99617.78;5057370;28;1914;-41
2023/10/28 03:29:07;;;;;;;;;;;;;;;27.59;31.86;99619.22;5046891;28;1135;-42
2023/10/28 03:31:33;;;;;;;;;;;;;;;27.37;32.70;99622.22;5044877;28;1222;-41
2023/10/28 03:33:59;;;;;;;;;;;;;;;26.42;32.69;99624.16;5019901;28;1054;-43
2023/10/28 03:36:25;;;;;;;;;;;;;;;25.79;33.83;99629.56;5032229;28;2677;-43
2023/10/28 03:38:51;;;;;;;;;;;;;;;25.63;33.86;99630.75;5038532;28;1411;-43
2023/10/28 03:41:17;;;;;;;;;;;;;;;24.53;35.25;99632.00;5037954;28;1080;-43
2023/10/28 03:43:42;;;;;;;;;;;;;;;24.79;34.99;99636.78;5052591;28;1116;-43
2023/10/28 03:46:09;;;;;;;;;;;;;;;24.75;35.38;99630.13;5039473;28;1143;-43
2023/10/28 03:48:35;;;;;;;;;;;;;;;25.19;34.97;99632.75;5033663;28;2000;-43
2023/10/28 03:51:04;;;;;;;;;;;;;;;25.67;34.20;99634.69;5037555;28;1144;-43
2023/10/28 03:53:29;;;;;;;;;;;;;;;24.81;34.93;99618.59;5051053;28;1292;-43
2023/10/28 03:55:54;;;;;;;;;;;;;;;24.12;36.15;99628.91;5043118;28;1162;-25
2023/10/28 03:58:20;;;;;;;;;;;;;;;25.14;34.78;99637.91;5046672;28;1079;-24
2023/10/28 04:00:48;;;;;;;;;;;;;;;25.87;33.81;99649.28;5044443;28;1536;-25
2023/10/28 04:03:14;;;;;;;;;;;;;;;26.26;33.55;99657.66;5056083;28;1283;-23
2023/10/28 04:05:39;;;;;;;;;;;;;;;26.45;33.24;99656.09;5056816;28;1134;-26
2023/10/28 04:08:05;;;;;;;;;;;;;;;26.39;33.04;99673.09;5045679;28;1914;-24
2023/10/28 04:10:30;;;;;;;;;;;;;;;26.58;32.95;99674.16;5048100;28;1392;-25
2023/10/28 04:12:56;;;;;;;;;;;;;;;26.90;32.92;99682.47;5036666;28;1175;-23
2023/10/28 04:17:31;;;;;;;;;;;;;;;27.22;32.05;99686.44;5065305;27;1434390;-37
2023/10/28 04:31:06;;;;;;;;;;;;;;;25.57;35.76;99701.53;5064946;27;1434363;-25
2023/10/28 04:33:32;;;;;;;;;;;;;;;27.06;32.69;99712.00;5088922;28;1332;-27
2023/10/28 04:35:57;;;;;;;;;;;;;;;27.61;31.76;99709.00;5114328;28;1049;-26
2023/10/28 04:38:23;;;;;;;;;;;;;;;27.87;31.01;99709.16;5100211;28;1074;-25
2023/10/28 04:40:49;;;;;;;;;;;;;;;27.92;30.98;99706.66;5102689;28;1086;-25
2023/10/28 04:43:14;;;;;;;;;;;;;;;27.80;31.13;99706.47;5095702;28;1051;-26
2023/10/28 04:45:40;;;;;;;;;;;;;;;27.83;31.02;99714.16;5093295;28;1130;-27
2023/10/28 04:48:06;;;;;;;;;;;;;;;27.68;31.61;99721.66;5106915;28;1094;-27
2023/10/28 04:50:32;;;;;;;;;;;;;;;27.87;31.06;99731.63;5093219;28;1906;-26
2023/10/28 04:52:57;;;;;;;;;;;;;;;27.96;30.91;99726.78;5097561;28;1054;-27
2023/10/28 04:55:25;;;;;;;;;;;;;;;27.89;30.71;99722.47;5104586;28;1042;-27
2023/10/28 04:57:51;;;;;;;;;;;;;;;27.93;31.11;99721.81;5108653;28;1125;-25
2023/10/28 05:00:16;;;;;;;;;;;;;;;27.98;30.87;99732.81;5105106;28;1042;-30
2023/10/28 05:02:42;;;;;;;;;;;;;;;28.05;30.75;99732.81;5100180;28;1225;-24
2023/10/28 05:05:08;;;;;;;;;;;;;;;27.74;31.76;99737.88;5101809;28;1197;-29
2023/10/28 05:07:33;;;;;;;;;;;;;;;27.71;31.71;99738.31;5107998;28;1174;-31
2023/10/28 05:09:59;;;;;;;;;;;;;;;27.47;31.86;99735.22;5085805;28;1964;-28
2023/10/28 05:12:25;;;;;;;;;;;;;;;27.31;32.08;99744.56;5091848;28;893;-31
2023/10/28 05:14:50;;;;;;;;;;;;;;;27.13;32.32;99754.13;5105626;28;1023;-26
2023/10/28 05:17:16;;;;;;;;;;;;;;;27.10;32.38;99757.25;5092848;28;1175;-29
2023/10/28 05:19:42;;;;;;;;;;;;;;;27.41;32.07;99763.03;5104690;28;1412;-28
2023/10/28 05:22:08;;;;;;;;;;;;;;;27.14;32.38;99771.19;5092576;28;1357;-29
2023/10/28 05:24:33;;;;;;;;;;;;;;;26.96;32.63;99771.75;5081322;28;1107;-30
2023/10/28 05:26:59;;;;;;;;;;;;;;;27.24;32.29;99776.97;5104248;28;1146;-27
2023/10/28 05:29:24;;;;;;;;;;;;;;;26.95;32.97;99779.00;5093795;28;1909;-28
2023/10/28 05:31:50;;;;;;;;;;;;;;;27.31;32.23;99787.78;5104797;28;1123;-27
2023/10/28 05:34:16;;;;;;;;;;;;;;;27.18;32.65;99803.97;5112709;28;1089;-28
2023/10/28 05:36:41;;;;;;;;;;;;;;;27.13;32.47;99807.28;5076928;28;1053;-30
2023/10/28 05:39:07;;;;;;;;;;;;;;;27.18;32.60;99806.66;5082037;28;1293;-27
2023/10/28 05:41:32;;;;;;;;;;;;;;;27.49;31.91;99819.56;5072636;28;1002;-26
2023/10/28 05:43:58;;;;;;;;;;;;;;;27.20;32.50;99826.19;5075033;28;889;-29
2023/10/28 05:46:23;;;;;;;;;;;;;;;27.55;31.83;99819.75;5090458;28;865;-28
2023/10/28 05:48:52;;;;;;;;;;;;;;;27.58;32.72;99819.34;5078684;28;1914;-25
2023/10/28 05:51:17;;;;;;;;;;;;;;;27.64;32.27;99821.22;5092900;28;1151;-28
2023/10/28 05:53:43;;;;;;;;;;;;;;;27.56;32.36;99821.44;5098501;28;1156;-26
2023/10/28 05:56:08;;;;;;;;;;;;;;;27.52;32.74;99823.72;5088966;28;1177;-28
2023/10/28 05:58:34;;;;;;;;;;;;;;;27.49;32.73;99837.66;5077609;28;1051;-26
2023/10/28 06:01:01;;;;;;;;;;;;;;;27.38;32.40;99839.94;5068620;28;1047;-27
2023/10/28 06:03:27;;;;;;;;;;;;;;;27.71;31.97;99842.88;5077212;28;1571;-26
2023/10/28 06:05:52;;;;;;;;;;;;;;;27.61;32.64;99840.56;5086384;28;1163;-28
2023/10/28 06:08:18;;;;;;;;;;;;;;;27.60;32.91;99853.22;5066016;28;1302;-28
2023/10/28 06:10:47;;;;;;;;;;;;;;;27.47;33.40;99853.22;5063819;28;1971;-27
2023/10/28 06:13:13;;;;;;;;;;;;;;;27.56;33.36;99856.56;5079899;28;1302;-30
2023/10/28 06:15:38;;;;;;;;;;;;;;;27.82;33.01;99861.16;5081384;28;1205;-32
2023/10/28 06:18:04;;;;;;;;;;;;;;;27.66;33.51;99856.13;5089897;28;1131;-28
2023/10/28 06:20:30;;;;;;;;;;;;;;;27.92;33.10;99851.75;5082350;28;1162;-28
2023/10/28 06:22:56;;;;;;;;;;;;;;;27.77;33.24;99863.66;5087173;28;1327;-30
2023/10/28 06:25:21;;;;;;;;;;;;;;;27.73;33.57;99863.22;5077598;28;900;-27
2023/10/28 06:27:47;;;;;;;;;;;;;;;27.86;33.19;99877.78;5081358;28;1031;-28
2023/10/28 06:30:14;;;;;;;;;;;;;;;28.07;32.58;99874.00;5077929;28;1911;-29
2023/10/28 06:32:40;;;;;;;;;;;;;;;27.81;32.62;99885.69;5084289;28;1114;-28
2023/10/28 06:35:06;;;;;;;;;;;;;;;27.89;32.60;99884.63;5084409;28;1087;-34
2023/10/28 06:37:31;;;;;;;;;;;;;;;28.13;32.15;99887.72;5097370;28;1070;-28
2023/10/28 06:39:58;;;;;;;;;;;;;;;28.04;32.13;99893.34;5084205;28;1034;-31
2023/10/28 06:42:24;;;;;;;;;;;;;;;27.72;32.93;99890.44;5077701;28;949;-28
2023/10/28 06:44:50;;;;;;;;;;;;;;;28.10;32.16;99897.06;5085046;28;1463;-28
2023/10/28 06:47:16;;;;;;;;;;;;;;;28.10;32.15;99889.78;5084240;28;1039;-26
2023/10/28 06:49:42;;;;;;;;;;;;;;;28.16;32.09;99898.13;5060346;28;1906;-31
2023/10/28 06:52:07;;;;;;;;;;;;;;;28.16;32.03;99890.00;5082835;28;1146;-29
2023/10/28 06:54:33;;;;;;;;;;;;;;;28.28;32.11;99904.53;5096417;28;1065;-28
2023/10/28 06:56:58;;;;;;;;;;;;;;;28.54;31.74;99896.59;5088722;28;1114;-29
2023/10/28 06:59:25;;;;;;;;;;;;;;;28.53;31.78;99903.84;5085992;28;1103;-27
2023/10/28 07:01:51;;;;;;;;;;;;;;;28.56;31.94;99897.22;5096568;28;993;-30
2023/10/28 07:04:16;;;;;;;;;;;;;;;28.65;31.56;99898.63;5091641;28;1094;-30
2023/10/28 07:06:42;;;;;;;;;;;;;;;28.81;31.44;99904.59;5076887;28;1062;-28
2023/10/28 07:09:07;;;;;;;;;;;;;;;28.54;31.94;99905.53;5072130;28;1910;-26
2023/10/28 07:11:33;;;;;;;;;;;;;;;28.60;32.01;99903.84;5064032;28;1595;-29
2023/10/28 07:13:58;;;;;;;;;;;;;;;28.63;31.71;99899.88;5057598;28;1118;-26
2023/10/28 07:16:24;;;;;;;;;;;;;;;28.66;31.82;99902.16;5067206;28;1285;-26
2023/10/28 07:18:49;;;;;;;;;;;;;;;28.91;31.36;99902.25;5095043;28;1051;-28
2023/10/28 07:21:14;;;;;;;;;;;;;;;28.64;29.86;99894.25;5088237;28;1232;-29
2023/10/28 07:23:40;;;;;;;;;;;;;;;28.77;31.30;99887.13;5093714;28;1051;-27
2023/10/28 07:26:06;;;;;;;;;;;;;;;28.82;31.10;99890.84;5097133;28;1078;-28
2023/10/28 07:28:34;;;;;;;;;;;;;;;29.01;31.38;99896.38;5090963;28;1109;-29
2023/10/28 07:31:00;;;;;;;;;;;;;;;29.08;31.08;99899.06;5088799;28;1910;-31
2023/10/28 07:33:26;;;;;;;;;;;;;;;28.74;31.83;99896.50;5092279;28;1062;-30
2023/10/28 07:35:51;;;;;;;;;;;;;;;28.86;31.38;99907.50;5070813;28;992;-26
2023/10/28 07:38:17;;;;;;;;;;;;;;;28.83;31.40;99908.75;5073860;28;1294;-28
2023/10/28 07:40:43;;;;;;;;;;;;;;;28.75;31.82;99908.97;5059520;28;1420;-27
2023/10/28 07:43:11;;;;;;;;;;;;;;;28.82;32.10;99912.50;5072909;28;1671;-24
2023/10/28 07:45:38;;;;;;;;;;;;;;;29.09;31.49;99912.38;5086788;28;1143;-32
2023/10/28 07:48:06;;;;;;;;;;;;;;;29.09;31.38;99906.97;5085238;28;1146;-30
2023/10/28 07:50:32;;;;;;;;;;;;;;;29.04;31.26;99903.25;5074197;28;1906;-27
2023/10/28 07:52:58;;;;;;;;;;;;;;;29.05;31.50;99922.00;5080536;28;1031;-29
2023/10/28 07:55:23;;;;;;;;;;;;;;;28.97;31.34;99924.94;5074297;28;1429;-29
2023/10/28 07:57:49;;;;;;;;;;;;;;;28.84;31.58;99923.13;5069948;28;1424;-29
2023/10/28 08:00:14;;;;;;;;;;;;;;;29.20;30.93;99927.13;5073455;28;1294;-29
2023/10/28 08:02:44;;;;;;;;;;;;;;;29.24;30.91;99935.66;5057768;28;1108;-28
2023/10/28 08:05:10;;;;;;;;;;;;;;;29.36;30.53;99927.66;5064678;28;1137;-25
2023/10/28 08:07:36;;;;;;;;;;;;;;;29.35;30.31;99934.13;5094942;28;1057;-30
2023/10/28 08:10:02;;;;;;;;;;;;;;;29.39;30.40;99929.09;5088178;28;1967;-28
2023/10/28 08:12:27;;;;;;;;;;;;;;;29.39;31.04;99932.63;5073052;28;1095;-27
2023/10/28 08:14:53;;;;;;;;;;;;;;;29.60;30.93;99930.63;5057189;28;1247;-28
2023/10/28 08:17:18;;;;;;;;;;;;;;;29.41;30.56;99933.22;5059075;28;1130;-30
2023/10/28 08:19:44;;;;;;;;;;;;;;;29.68;30.42;99937.66;5062350;28;1345;-25
2023/10/28 08:22:12;;;;;;;;;;;;;;;29.62;30.55;99923.13;5071646;28;1261;-27
2023/10/28 08:24:37;;;;;;;;;;;;;;;29.61;30.05;99920.63;5061779;28;1298;-28
2023/10/28 08:27:03;;;;;;;;;;;;;;;29.64;29.74;99925.63;5069038;28;1599;-28
2023/10/28 08:29:28;;;;;;;;;;;;;;;29.68;29.85;99924.94;5085058;28;1967;-28
2023/10/28 08:31:54;;;;;;;;;;;;;;;29.50;29.43;99931.09;5063145;28;1321;-32
2023/10/28 08:34:19;;;;;;;;;;;;;;;29.65;29.58;99927.25;5067148;28;1329;-28
2023/10/28 08:36:45;;;;;;;;;;;;;;;29.67;29.27;99927.88;5068690;28;1130;-27
2023/10/28 08:39:13;;;;;;;;;;;;;;;29.63;29.50;99935.63;5075213;28;1309;-26
2023/10/28 08:41:38;;;;;;;;;;;;;;;29.33;29.88;99934.31;5088527;28;881;-29
2023/10/28 08:44:04;;;;;;;;;;;;;;;29.45;29.47;99945.31;5090543;28;1146;-27
2023/10/28 08:46:30;;;;;;;;;;;;;;;29.56;29.69;99943.75;5059783;28;908;-29
2023/10/28 08:48:56;;;;;;;;;;;;;;;29.68;29.60;99954.75;5060490;28;1969;-28
2023/10/28 08:51:21;;;;;;;;;;;;;;;29.69;29.28;99939.34;5080320;28;1060;-27
2023/10/28 08:53:47;;;;;;;;;;;;;;;29.68;29.44;99934.94;5066858;28;1107;-25
2023/10/28 08:56:17;;;;;;;;;;;;;;;29.61;29.12;99940.44;5057980;28;1170;-28
2023/10/28 08:58:45;;;;;;;;;;;;;;;29.54;29.46;99943.16;5090466;28;1027;-27
2023/10/28 09:01:10;;;;;;;;;;;;;;;29.71;29.59;99934.53;5095424;28;1130;-26
2023/10/28 09:03:36;;;;;;;;;;;;;;;29.65;29.27;99951.66;5091465;28;1058;-27
2023/10/28 09:06:02;;;;;;;;;;;;;;;29.62;30.48;99952.94;5084677;28;1154;-29
2023/10/28 09:08:27;;;;;;;;;;;;;;;29.63;29.88;99943.75;5072051;28;1153;-29
2023/10/28 09:10:53;;;;;;;;;;;;;;;29.75;30.12;99938.44;5071670;28;1929;-26
2023/10/28 09:13:18;;;;;;;;;;;;;;;29.75;30.00;99943.03;5074636;28;1139;-28
2023/10/28 09:15:46;;;;;;;;;;;;;;;29.70;29.77;99951.81;5093866;28;844;-29
2023/10/28 09:18:11;;;;;;;;;;;;;;;29.87;30.08;99954.00;5083186;28;1171;-26
2023/10/28 09:20:41;;;;;;;;;;;;;;;29.80;30.03;99954.88;5070761;28;1079;-29
2023/10/28 09:23:06;;;;;;;;;;;;;;;29.69;30.30;99961.03;5084048;28;1055;-28
2023/10/28 09:25:34;;;;;;;;;;;;;;;29.58;30.44;99955.22;5068023;28;1154;-31
2023/10/28 09:28:00;;;;;;;;;;;;;;;29.57;30.05;99950.84;5060000;28;1532;-27
2023/10/28 09:30:25;;;;;;;;;;;;;;;29.66;29.05;99950.63;5073406;28;1917;-27
2023/10/28 09:32:54;;;;;;;;;;;;;;;29.58;29.70;99952.50;5078397;28;1027;-27
2023/10/28 09:35:20;;;;;;;;;;;;;;;29.62;29.90;99952.94;5061431;28;873;-27
2023/10/28 09:37:45;;;;;;;;;;;;;;;29.57;30.06;99948.16;5060966;28;1104;-26
2023/10/28 09:40:12;;;;;;;;;;;;;;;29.73;29.54;99956.81;5078619;28;1055;-26
2023/10/28 09:42:38;;;;;;;;;;;;;;;29.77;29.26;99936.34;5078231;28;1043;-26
2023/10/28 09:45:05;;;;;;;;;;;;;;;29.67;29.23;99949.56;5078725;28;1055;-27
2023/10/28 09:47:39;;;;;;;;;;;;;;;29.84;29.41;99947.13;5073713;28;1080;-28
2023/10/28 09:50:06;;;;;;;;;;;;;;;29.76;29.14;99942.00;5059748;28;1910;-27
2023/10/28 09:52:31;;;;;;;;;;;;;;;29.69;28.70;99933.91;5071913;28;1457;-31
2023/10/28 09:54:57;;;;;;;;;;;;;;;29.52;29.13;99937.13;5089330;28;1091;-28
2023/10/28 09:57:23;;;;;;;;;;;;;;;29.51;29.08;99934.66;5070472;28;1378;-28
2023/10/28 09:59:48;;;;;;;;;;;;;;;29.37;29.96;99926.59;5084740;28;961;-27
2023/10/28 10:02:44;;;;;;;;;;;;;;;29.85;28.79;99929.81;5075660;28;1252;-28
2023/10/28 10:05:14;;;;;;;;;;;;;;;30.27;26.11;99925.69;5060431;28;1438;-26
2023/10/28 10:07:40;;;;;;;;;;;;;;;30.42;25.00;99918.03;5070412;28;1036;-26
2023/10/28 10:10:19;;;;;;;;;;;;;;;30.51;24.70;99925.88;5089358;28;1988;-27
2023/10/28 10:12:45;;;;;;;;;;;;;;;30.71;26.16;99913.94;5068679;28;1024;-21
2023/10/28 10:15:11;;;;;;;;;;;;;;;30.55;26.50;99929.78;5077473;28;1127;-20
2023/10/28 10:18:04;;;;;;;;;;;;;;;30.34;26.66;99925.63;5088525;28;1157;-21
2023/10/28 10:20:32;;;;;;;;;;;;;;;30.24;27.25;99927.00;5076273;28;1689;-22
2023/10/28 10:22:59;;;;;;;;;;;;;;;29.99;27.07;99922.41;5074944;28;1059;-23
2023/10/28 10:25:30;;;;;;;;;;;;;;;30.04;27.49;99938.00;5079024;28;1087;-23
2023/10/28 10:28:05;;;;;;;;;;;;;;;30.04;27.66;99936.13;5073220;28;1317;-24
2023/10/28 10:30:32;;;;;;;;;;;;;;;30.20;27.40;99944.75;5079135;28;1976;-21
2023/10/28 10:32:58;;;;;;;;;;;;;;;30.12;27.49;99943.13;5070607;28;1333;-22
2023/10/28 10:35:30;;;;;;;;;;;;;;;30.35;27.05;99938.13;5070117;28;1076;-21
2023/10/28 10:37:59;;;;;;;;;;;;;;;30.42;27.03;99938.91;5073473;28;1269;-21
2023/10/28 10:40:25;;;;;;;;;;;;;;;30.21;27.05;99942.88;5083048;28;1040;-21
2023/10/28 10:42:55;;;;;;;;;;;;;;;30.20;27.46;99942.03;5067832;28;1308;-21
2023/10/28 10:45:22;;;;;;;;;;;;;;;30.41;27.05;99939.97;5073071;28;1135;-21
2023/10/28 10:47:48;;;;;;;;;;;;;;;30.39;27.12;99950.22;5081836;28;905;-21
2023/10/28 10:50:14;;;;;;;;;;;;;;;30.52;26.87;99949.22;5069196;28;1979;-21
2023/10/28 10:52:39;;;;;;;;;;;;;;;30.50;26.86;99952.16;5074297;28;1474;-21
2023/10/28 10:55:05;;;;;;;;;;;;;;;30.68;26.20;99951.34;5077992;28;1293;-21
2023/10/28 10:57:32;;;;;;;;;;;;;;;30.61;26.53;99939.75;5087105;28;1222;-21
2023/10/28 10:59:58;;;;;;;;;;;;;;;30.77;25.99;99967.31;5080948;28;974;-21
2023/10/28 11:02:24;;;;;;;;;;;;;;;30.68;26.03;99950.50;5097486;28;1117;-21
2023/10/28 11:04:50;;;;;;;;;;;;;;;30.60;26.09;99935.34;5066349;28;1308;-21
2023/10/28 11:07:15;;;;;;;;;;;;;;;30.51;26.38;99936.72;5075572;28;995;-21
2023/10/28 11:09:42;;;;;;;;;;;;;;;30.41;26.44;99939.97;5090730;28;1910;-21
2023/10/28 11:12:07;;;;;;;;;;;;;;;30.45;26.32;99937.63;5082092;28;881;-21
2023/10/28 11:14:33;;;;;;;;;;;;;;;30.44;26.52;99939.50;5095630;28;1040;-21
2023/10/28 11:16:59;;;;;;;;;;;;;;;30.46;26.36;99948.25;5084429;28;1229;-21
2023/10/28 11:19:25;;;;;;;;;;;;;;;30.33;26.60;99943.78;5095954;28;1075;-24
2023/10/28 11:21:50;;;;;;;;;;;;;;;30.34;26.62;99941.91;5076543;28;966;-20
2023/10/28 11:24:17;;;;;;;;;;;;;;;30.35;26.67;99947.09;5075138;28;892;-21
2023/10/28 11:26:46;;;;;;;;;;;;;;;30.39;26.41;99951.03;5091345;28;1058;-21
2023/10/28 11:29:13;;;;;;;;;;;;;;;30.38;26.66;99949.38;5076991;28;1978;-21
2023/10/28 11:31:40;;;;;;;;;;;;;;;30.42;26.44;99949.75;5063382;28;1156;-21
2023/10/28 11:34:06;;;;;;;;;;;;;;;30.41;26.82;99958.97;5084586;28;1197;-20
2023/10/28 11:36:33;;;;;;;;;;;;;;;30.53;26.66;99962.56;5095513;28;845;-21
2023/10/28 11:39:07;;;;;;;;;;;;;;;30.36;26.72;99958.81;5082570;28;1115;-21
2023/10/28 11:41:32;;;;;;;;;;;;;;;30.24;26.96;99959.53;5089829;28;1090;-21
2023/10/28 11:43:59;;;;;;;;;;;;;;;30.25;26.75;99961.19;5074854;28;868;-20
2023/10/28 11:46:25;;;;;;;;;;;;;;;30.09;27.15;99962.56;5086114;28;1073;-20
2023/10/28 11:48:50;;;;;;;;;;;;;;;30.05;27.03;99967.59;5083130;28;1167;-21
2023/10/28 11:51:16;;;;;;;;;;;;;;;30.03;27.48;99960.75;5082991;28;1898;-20
2023/10/28 11:53:44;;;;;;;;;;;;;;;30.04;26.91;99951.56;5042383;28;1140;-21
2023/10/28 11:56:09;;;;;;;;;;;;;;;30.43;26.53;99960.38;5067260;28;1354;-20
2023/10/28 11:58:35;;;;;;;;;;;;;;;30.26;26.87;99945.75;5063090;28;1778;-20
2023/10/28 12:01:01;;;;;;;;;;;;;;;30.17;27.04;99953.31;5077580;28;862;-20
2023/10/28 12:03:27;;;;;;;;;;;;;;;30.23;26.76;99962.47;5085234;28;1017;-20
2023/10/28 12:05:53;;;;;;;;;;;;;;;30.20;26.99;99966.44;5096567;28;1042;-21
2023/10/28 12:08:19;;;;;;;;;;;;;;;30.18;27.06;99963.09;5081433;28;865;-20
2023/10/28 12:10:45;;;;;;;;;;;;;;;30.40;26.66;99957.28;5081985;28;1968;-18
2023/10/28 12:13:11;;;;;;;;;;;;;;;30.53;26.58;99965.28;5080388;28;1097;-18
2023/10/28 12:15:36;;;;;;;;;;;;;;;30.45;26.47;99975.63;5086157;28;1036;-18
2023/10/28 12:18:02;;;;;;;;;;;;;;;30.24;26.71;99964.97;5092914;28;1227;-18
2023/10/28 12:20:27;;;;;;;;;;;;;;;30.53;26.29;99975.34;5085978;28;1090;-18
2023/10/28 12:22:53;;;;;;;;;;;;;;;30.57;26.02;99979.25;5082190;28;1038;-18
2023/10/28 12:25:18;;;;;;;;;;;;;;;30.31;26.56;99973.84;5082162;28;891;-18
2023/10/28 12:27:44;;;;;;;;;;;;;;;30.25;26.85;99974.75;5081347;28;1150;-18
2023/10/28 12:30:09;;;;;;;;;;;;;;;30.47;26.33;99960.78;5073029;28;1981;-18
2023/10/28 12:32:35;;;;;;;;;;;;;;;30.16;26.87;99976.88;5071555;28;1280;-18
2023/10/28 12:35:01;;;;;;;;;;;;;;;30.38;26.64;99971.06;5066434;28;1047;-18
2023/10/28 12:37:26;;;;;;;;;;;;;;;30.60;26.26;99967.09;5075127;28;927;-18
2023/10/28 12:39:52;;;;;;;;;;;;;;;30.21;26.78;99967.28;5073099;28;1309;-18
2023/10/28 12:42:17;;;;;;;;;;;;;;;30.34;26.90;99966.31;5085939;28;1111;-18
2023/10/28 12:44:43;;;;;;;;;;;;;;;30.57;26.50;99971.09;5076436;28;1276;-18
2023/10/28 12:47:09;;;;;;;;;;;;;;;30.60;26.31;99976.06;5077099;28;1014;-17
2023/10/28 12:49:34;;;;;;;;;;;;;;;30.29;26.98;99967.84;5075200;28;1967;-17
2023/10/28 12:52:01;;;;;;;;;;;;;;;30.44;26.38;99980.22;5070156;28;1158;-17
2023/10/28 12:54:27;;;;;;;;;;;;;;;30.19;27.06;99976.47;5063156;28;1277;-18
2023/10/28 12:56:53;;;;;;;;;;;;;;;30.38;26.88;99973.78;5063772;28;1181;-17
2023/10/28 12:59:19;;;;;;;;;;;;;;;30.42;27.07;99974.19;5072011;28;1407;-17
2023/10/28 13:31:42;;;;;;;;;;;;;;;27.14;32.82;99984.44;5096777;27;1379;-37
2023/10/28 13:34:08;;;;;;;;;;;;;;;28.13;31.17;99979.66;5106085;28;1239;-39
2023/10/28 13:36:34;;;;;;;;;;;;;;;28.52;30.73;99991.50;5103637;28;1022;-38